Time;durP1;ratioP1;P1;durP2;ratioP2;P2;SDS_P1;SDS_P2;PMS_P1;PMS_P2;Temp;Humidity;BMP_temperature;BMP_pressure;BME280_temperature;BME280_humidity;BME280_pressure;Samples;Min_cycle;Max_cycle;Signal;HPM_P1;HPM_P2
2021/11/16 00:01:12;;;;;;;;;23.67;22.00;;;;;1.21;60.19;103510.06;4938134;29;8941;-68
2021/11/16 00:04:09;;;;;;;;;33.00;32.00;;;;;1.31;60.33;103516.03;4938592;29;8843;-68
2021/11/16 00:07:06;;;;;;;;;27.00;25.00;;;;;1.29;60.30;103509.06;4939015;29;8839;-68
2021/11/16 00:09:34;;;;;;;;;22.33;22.33;;;;;1.36;59.52;103499.91;4939411;29;8913;-68
2021/11/16 00:12:30;;;;;;;;;25.00;22.33;;;;;1.22;59.63;103492.66;4938512;29;8850;-68
2021/11/16 00:15:25;;;;;;;;;32.67;27.33;;;;;1.24;59.53;103506.97;4938214;29;9580;-68
2021/11/16 00:18:26;;;;;;;;;17.33;17.33;;;;;1.17;59.71;103500.63;4938499;29;8839;-68
2021/11/16 00:21:25;;;;;;;;;19.00;19.00;;;;;1.03;60.00;103505.13;4937854;29;8835;-68
2021/11/16 00:24:32;;;;;;;;;27.33;27.33;;;;;1.13;59.30;103501.22;4937922;29;8830;-68
2021/11/16 00:27:27;;;;;;;;;25.00;25.00;;;;;1.18;59.40;103505.03;4937986;29;8842;-69
2021/11/16 00:30:05;;;;;;;;;24.33;23.33;;;;;1.23;58.88;103509.91;4938926;29;8838;-68
2021/11/16 00:33:01;;;;;;;;;28.00;24.00;;;;;1.24;59.08;103511.59;4938717;29;8868;-69
2021/11/16 00:35:57;;;;;;;;;21.67;21.67;;;;;1.14;59.38;103500.16;4937562;29;9634;-69
2021/11/16 00:38:53;;;;;;;;;26.00;25.67;;;;;1.29;58.74;103509.91;4937880;29;8872;-68
2021/11/16 00:41:49;;;;;;;;;25.33;20.33;;;;;1.47;58.63;103512.13;4937720;29;8847;-68
2021/11/16 00:44:45;;;;;;;;;8.00;5.00;;;;;1.38;58.24;103514.19;4937281;29;9599;-68
2021/11/16 00:47:43;;;;;;;;;21.67;19.67;;;;;1.37;57.88;103509.75;4937749;29;8860;-68
2021/11/16 00:50:41;;;;;;;;;30.00;30.00;;;;;1.36;57.89;103507.22;4937493;29;9600;-69
2021/11/16 00:53:25;;;;;;;;;24.00;22.33;;;;;1.33;58.21;103516.66;4938106;29;8850;-68
2021/11/16 00:56:20;;;;;;;;;18.00;18.00;;;;;1.25;58.52;103507.81;4937076;29;8838;-69
2021/11/16 00:59:16;;;;;;;;;16.00;15.33;;;;;1.20;58.99;103511.13;4937301;29;8854;-68
2021/11/16 01:02:11;;;;;;;;;20.33;20.33;;;;;1.09;58.88;103514.41;4937179;29;8835;-69
2021/11/16 01:05:08;;;;;;;;;15.00;15.00;;;;;1.10;58.42;103510.63;4936535;29;8854;-68
2021/11/16 01:08:05;;;;;;;;;11.00;11.00;;;;;1.01;58.80;103512.69;4937341;29;8846;-67
2021/11/16 01:10:33;;;;;;;;;9.00;9.00;;;;;1.28;58.36;103504.66;4938110;29;8846;-68
2021/11/16 01:13:29;;;;;;;;;10.00;10.00;;;;;1.37;57.80;103511.63;4935799;29;8858;-68
2021/11/16 01:16:25;;;;;;;;;16.00;12.67;;;;;1.22;58.02;103514.47;4936995;29;11596;-67
2021/11/16 01:19:20;;;;;;;;;7.33;7.33;;;;;1.29;58.33;103515.38;4936799;29;8881;-68
2021/11/16 01:21:48;;;;;;;;;7.33;6.33;;;;;1.19;58.12;103523.06;4920930;29;8855;-67
2021/11/16 01:24:17;;;;;;;;;9.67;8.67;;;;;1.30;58.31;103511.63;4905365;29;11539;-68
2021/11/16 01:27:18;;;;;;;;;9.67;9.67;;;;;1.36;58.00;103516.25;4936270;29;11522;-68
2021/11/16 01:30:17;;;;;;;;;10.00;10.00;;;;;1.46;57.69;103517.78;4924100;29;8841;-68
2021/11/16 01:33:14;;;;;;;;;14.33;14.33;;;;;1.47;57.96;103519.50;4936716;29;11518;-68
2021/11/16 01:36:12;;;;;;;;;44.33;39.00;;;;;1.50;58.11;103522.63;4936719;29;8838;-68
2021/11/16 01:39:08;;;;;;;;;70.33;53.00;;;;;1.47;57.83;103516.75;4935662;29;8961;-69
2021/11/16 01:42:04;;;;;;;;;77.00;60.33;;;;;1.45;58.73;103518.81;4936707;29;8865;-69
2021/11/16 01:45:00;;;;;;;;;60.33;47.67;;;;;1.49;58.38;103528.31;4936233;29;8873;-69
2021/11/16 01:47:56;;;;;;;;;28.67;27.00;;;;;1.22;58.70;103519.94;4936631;29;8858;-69
2021/11/16 01:50:39;;;;;;;;;13.00;13.00;;;;;1.00;59.00;103523.78;4920308;29;8869;-68
2021/11/16 01:53:37;;;;;;;;;12.33;12.33;;;;;0.85;59.75;103518.41;4936284;29;8864;-69
2021/11/16 01:56:38;;;;;;;;;12.67;12.67;;;;;0.88;59.69;103523.47;4936938;29;8839;-69
2021/11/16 01:59:34;;;;;;;;;11.00;11.00;;;;;0.80;59.68;103524.44;4937030;29;8838;-68
2021/11/16 02:02:29;;;;;;;;;21.33;19.67;;;;;0.85;59.97;103518.41;4936449;29;9644;-68
2021/11/16 02:05:51;;;;;;;;;13.67;13.67;;;;;0.60;60.42;103508.97;4917470;29;8845;-68
2021/11/16 02:08:49;;;;;;;;;18.00;18.00;;;;;0.44;61.43;103529.97;4917621;29;8953;-68
2021/11/16 02:11:46;;;;;;;;;15.00;15.00;;;;;0.44;60.94;103526.41;4917889;29;8836;-68
2021/11/16 02:14:41;;;;;;;;;13.00;12.33;;;;;0.36;61.43;103521.09;4916064;29;9604;-68
2021/11/16 02:17:37;;;;;;;;;16.33;16.33;;;;;0.49;61.32;103521.22;4936525;29;8858;-68
2021/11/16 02:20:36;;;;;;;;;9.33;9.33;;;;;0.54;61.23;103529.66;4935775;29;8859;-68
2021/11/16 02:23:32;;;;;;;;;12.00;11.33;;;;;0.37;61.42;103530.94;4935980;29;8854;-69
2021/11/16 02:26:28;;;;;;;;;12.00;12.00;;;;;0.34;61.20;103528.63;4936310;29;8842;-69
2021/11/16 02:29:24;;;;;;;;;7.00;7.00;;;;;0.40;60.68;103531.41;4936052;29;8849;-69
2021/11/16 02:32:20;;;;;;;;;10.00;9.33;;;;;0.52;61.02;103535.28;4936195;29;8846;-69
2021/11/16 02:35:22;;;;;;;;;8.33;8.33;;;;;0.51;60.99;103532.75;4935826;29;8838;-69
2021/11/16 02:38:19;;;;;;;;;12.00;12.00;;;;;0.66;61.16;103535.41;4917521;29;8875;-69
2021/11/16 02:41:15;;;;;;;;;16.00;15.33;;;;;0.59;60.96;103529.06;4917230;29;8844;-69
2021/11/16 02:44:11;;;;;;;;;21.67;19.33;;;;;0.52;61.06;103535.28;4916730;29;8867;-69
2021/11/16 02:47:07;;;;;;;;;32.00;32.00;;;;;0.69;60.65;103544.06;4925873;29;8834;-69
2021/11/16 02:50:04;;;;;;;;;32.67;29.67;;;;;0.65;60.97;103548.19;4935446;29;8847;-70
2021/11/16 02:52:59;;;;;;;;;31.33;31.33;;;;;0.62;60.73;103529.53;4935627;29;9700;-68
2021/11/16 02:55:55;;;;;;;;;48.33;40.67;;;;;0.55;61.46;103525.91;4935400;29;8830;-69
2021/11/16 02:58:51;;;;;;;;;35.67;34.33;;;;;0.49;60.97;103541.13;4935266;29;8985;-69
2021/11/16 03:01:46;;;;;;;;;54.33;48.00;;;;;0.56;61.37;103541.19;4935187;29;8850;-69
2021/11/16 03:04:46;;;;;;;;;41.33;41.33;;;;;0.46;61.17;103540.66;4935328;29;8960;-69
2021/11/16 03:07:48;;;;;;;;;34.00;33.00;;;;;0.26;62.02;103535.03;4935308;29;8847;-69
2021/11/16 03:10:44;;;;;;;;;40.00;38.33;;;;;0.19;61.88;103531.38;4916206;29;8863;-69
2021/11/16 03:13:41;;;;;;;;;42.00;40.00;;;;;0.35;61.37;103533.84;4916355;29;8868;-69
2021/11/16 03:16:36;;;;;;;;;40.67;36.00;;;;;0.05;62.32;103527.66;4916064;29;8968;-69
2021/11/16 03:19:33;;;;;;;;;33.33;33.33;;;;;0.08;62.33;103520.97;4927813;29;8925;-69
2021/11/16 03:22:41;;;;;;;;;22.00;22.00;;;;;0.03;62.30;103526.19;4934898;29;8827;-69
2021/11/16 03:25:42;;;;;;;;;23.33;23.33;;;;;0.12;62.29;103528.59;4934795;29;8842;-69
2021/11/16 03:28:44;;;;;;;;;26.00;22.00;;;;;0.03;62.16;103524.28;4934042;29;8850;-69
2021/11/16 03:31:49;;;;;;;;;54.33;48.33;;;;;-0.26;62.73;103517.03;4934784;29;8859;-68
2021/11/16 03:34:18;;;;;;;;;33.67;33.67;;;;;-0.01;62.93;103518.38;4935960;29;8948;-68
2021/11/16 03:37:18;;;;;;;;;41.33;37.00;;;;;-0.12;62.84;103520.75;4935597;29;8858;-68
2021/11/16 03:40:16;;;;;;;;;29.33;29.33;;;;;-0.18;63.01;103522.34;4934643;29;8834;-68
2021/11/16 03:43:14;;;;;;;;;30.33;27.67;;;;;-0.24;63.36;103520.38;4935004;29;8854;-69
2021/11/16 03:46:11;;;;;;;;;33.00;33.00;;;;;-0.22;63.19;103523.78;4934836;29;8870;-69
2021/11/16 03:49:10;;;;;;;;;31.67;30.00;;;;;-0.40;63.80;103516.00;4935438;29;8971;-69
2021/11/16 03:52:06;;;;;;;;;15.67;15.00;;;;;-0.38;64.27;103532.16;4934671;29;9662;-69
2021/11/16 03:55:03;;;;;;;;;29.33;29.33;;;;;-0.40;63.96;103534.19;4935618;29;8850;-69
2021/11/16 03:57:59;;;;;;;;;49.00;46.00;;;;;-0.37;63.96;103531.97;4935037;29;8838;-69
2021/11/16 04:01:15;;;;;;;;;53.67;45.33;;;;;-0.39;64.12;103533.16;4924576;29;8846;-69
2021/11/16 04:04:12;;;;;;;;;50.67;48.00;;;;;-0.42;64.54;103530.81;4934911;29;9005;-69
2021/11/16 04:07:08;;;;;;;;;33.33;31.33;;;;;-0.41;64.32;103527.91;4934696;29;8847;-69
2021/11/16 04:10:10;;;;;;;;;66.75;49.50;;;;;-0.53;64.48;103526.72;4934345;29;8840;-69
2021/11/16 04:13:05;;;;;;;;;69.33;52.00;;;;;-0.43;64.51;103529.13;4934707;29;8867;-69
2021/11/16 04:16:02;;;;;;;;;58.50;51.50;;;;;-0.54;64.66;103533.16;4935467;29;8834;-69
2021/11/16 04:18:58;;;;;;;;;51.67;48.33;;;;;-0.56;65.04;103535.22;4935258;29;8878;-68
2021/11/16 04:21:28;;;;;;;;;52.00;44.33;;;;;-0.64;65.19;103529.88;4935203;29;8893;-69
2021/11/16 04:24:23;;;;;;;;;45.33;42.33;;;;;-0.61;65.00;103532.25;4934571;29;8881;-69
2021/11/16 04:27:19;;;;;;;;;81.25;63.00;;;;;-0.79;65.21;103545.34;4935265;29;8877;-69
2021/11/16 04:30:18;;;;;;;;;86.25;66.75;;;;;-0.72;65.37;103540.84;4934198;29;8862;-69
2021/11/16 04:33:16;;;;;;;;;99.00;75.00;;;;;-0.72;65.37;103532.69;4933911;29;8913;-68
2021/11/16 04:36:13;;;;;;;;;112.25;83.00;;;;;-0.61;65.06;103543.13;4934328;29;8846;-69
2021/11/16 04:39:09;;;;;;;;;98.25;75.00;;;;;-0.64;65.29;103548.91;4934306;29;8858;-68
2021/11/16 04:42:05;;;;;;;;;105.50;79.00;;;;;-0.54;64.60;103544.03;4936565;29;8843;-69
2021/11/16 04:45:01;;;;;;;;;117.50;95.25;;;;;-0.71;64.96;103542.53;4925189;29;8847;-69
2021/11/16 04:48:00;;;;;;;;;101.50;76.50;;;;;-0.70;65.31;103544.22;4937352;29;8885;-68
2021/11/16 04:54:11;;;;;;;;;116.25;96.75;;;;;-0.80;66.13;103558.09;4937662;29;8838;-68
2021/11/16 05:03:22;;;;;;;;;103.00;78.00;;;;;-0.77;64.91;103546.81;4937355;29;8839;-69
2021/11/16 05:06:18;;;;;;;;;101.75;77.75;;;;;-0.89;65.57;103549.16;4938290;29;8934;-70
2021/11/16 05:09:14;;;;;;;;;100.75;73.00;;;;;-0.67;64.59;103546.59;4924986;29;8926;-69
2021/11/16 05:12:10;;;;;;;;;103.00;78.25;;;;;-0.80;65.33;103546.38;4906302;29;8860;-70
2021/11/16 05:14:39;;;;;;;;;107.50;84.25;;;;;-0.68;65.06;103543.03;4932798;29;8884;-68
2021/11/16 05:17:28;;;;;;;;;94.75;65.50;;;;;-0.48;64.76;103559.59;4938078;29;8835;-69
2021/11/16 05:20:24;;;;;;;;;84.50;65.00;;;;;-0.43;64.73;103551.75;4937087;29;8852;-69
2021/11/16 05:23:20;;;;;;;;;67.50;57.00;;;;;-0.42;64.56;103553.41;4924317;29;8993;-69
2021/11/16 05:25:52;;;;;;;;;93.25;72.00;;;;;-0.47;64.24;103557.72;4938146;29;8851;-69
2021/11/16 05:28:48;;;;;;;;;56.25;50.25;;;;;-0.35;63.75;103567.97;4932549;29;8842;-69
2021/11/16 05:31:45;;;;;;;;;75.00;62.50;;;;;-0.35;63.93;103576.13;4935835;29;8846;-69
2021/11/16 05:34:40;;;;;;;;;56.25;48.25;;;;;-0.35;63.56;103569.84;4936623;29;9001;-70
2021/11/16 05:37:37;;;;;;;;;63.50;53.75;;;;;-0.39;63.31;103577.50;4936907;29;8843;-69
2021/11/16 05:40:33;;;;;;;;;68.00;55.00;;;;;-0.19;63.54;103585.97;4936159;29;8850;-69
2021/11/16 05:43:31;;;;;;;;;56.33;49.67;;;;;-0.07;63.11;103587.19;4936812;29;8873;-68
2021/11/16 05:46:27;;;;;;;;;63.67;54.67;;;;;0.10;62.88;103590.53;4936635;29;8922;-68
2021/11/16 05:49:22;;;;;;;;;73.00;59.33;;;;;0.16;62.24;103602.56;4937380;29;8834;-69
2021/11/16 05:52:18;;;;;;;;;61.33;47.33;;;;;0.14;61.70;103607.31;4936271;29;8847;-69
2021/11/16 05:55:14;;;;;;;;;60.33;48.67;;;;;0.23;62.35;103598.88;4936418;29;8845;-68
2021/11/16 05:58:14;;;;;;;;;57.67;49.67;;;;;0.46;61.37;103600.56;4936518;29;8890;-69
2021/11/16 06:00:42;;;;;;;;;77.00;63.00;;;;;0.41;61.36;103613.94;4937363;29;8925;-69
2021/11/16 06:03:10;;;;;;;;;48.00;44.00;;;;;0.64;60.96;103614.63;4936991;29;8905;-73
2021/11/16 06:05:40;;;;;;;;;42.67;37.33;;;;;0.52;60.97;103607.97;4920522;29;8842;-74
2021/11/16 06:08:36;;;;;;;;;43.33;41.33;;;;;0.80;60.23;103622.53;4936413;29;8858;-72
2021/11/16 06:11:33;;;;;;;;;17.67;15.67;;;;;0.82;61.07;103622.34;4936201;29;8842;-73
2021/11/16 06:14:29;;;;;;;;;38.67;36.67;;;;;0.93;60.93;103621.00;4936478;29;8861;-73
2021/11/16 06:17:25;;;;;;;;;22.00;21.33;;;;;1.03;60.38;103625.06;4936071;29;8913;-73
2021/11/16 06:20:21;;;;;;;;;35.00;34.33;;;;;1.04;59.53;103620.47;4919534;29;8951;-74
2021/11/16 06:22:49;;;;;;;;;13.33;12.33;;;;;0.74;59.67;103617.88;4917776;29;8848;-74
2021/11/16 06:25:46;;;;;;;;;22.33;22.00;;;;;1.02;59.50;103623.38;4934439;29;8959;-73
2021/11/16 06:28:42;;;;;;;;;21.67;19.33;;;;;1.20;59.60;103622.06;4935550;29;8862;-73
2021/11/16 06:31:38;;;;;;;;;22.67;20.67;;;;;1.25;58.63;103625.91;4935306;29;9609;-75
2021/11/16 06:34:34;;;;;;;;;26.33;22.33;;;;;1.36;58.01;103627.22;4935831;29;8850;-75
2021/11/16 06:37:31;;;;;;;;;32.00;31.00;;;;;1.68;62.94;103626.63;4917138;29;8856;-74
2021/11/16 06:40:27;;;;;;;;;44.67;43.00;;;;;2.33;68.17;103629.94;4935364;29;8925;-75
2021/11/16 06:43:29;;;;;;;;;36.33;35.33;;;;;3.53;70.87;103623.59;4922819;29;8930;-76
2021/11/16 06:46:25;;;;;;;;;68.00;57.67;;;;;3.93;77.23;103614.47;4935586;29;8838;-76
2021/11/16 06:49:21;;;;;;;;;45.33;42.00;;;;;4.00;68.56;103621.59;4923203;29;8973;-76
2021/11/16 06:52:19;;;;;;;;;74.00;61.00;;;;;3.90;62.61;103621.19;4934440;29;11551;-77
2021/11/16 06:55:15;;;;;;;;;25.25;24.50;;;;;3.27;57.31;103621.69;4929745;29;8865;-73
2021/11/16 06:58:10;;;;;;;;;22.25;19.25;;;;;3.21;55.25;103616.22;4935209;29;11534;-73
2021/11/16 07:01:06;;;;;;;;;51.67;43.67;;;;;2.97;54.79;103634.09;4916774;29;11553;-73
2021/11/16 07:04:05;;;;;;;;;46.67;38.33;;;;;2.91;55.13;103619.34;4934114;29;11558;-73
2021/11/16 07:07:02;;;;;;;;;23.33;22.00;;;;;2.89;55.21;103615.97;4934169;29;11669;-73
2021/11/16 07:10:00;;;;;;;;;28.25;22.75;;;;;2.86;55.07;103612.84;4934638;29;12408;-72
2021/11/16 07:13:04;;;;;;;;;15.00;15.00;;;;;2.75;54.92;103617.84;4936007;29;11533;-73
2021/11/16 07:15:47;;;;;;;;;19.75;18.75;;;;;2.91;54.75;103616.59;4935601;29;11528;-72
2021/11/16 07:18:48;;;;;;;;;26.00;22.50;;;;;3.20;53.97;103609.06;4934730;29;11538;-73
2021/11/16 07:21:50;;;;;;;;;17.00;12.75;;;;;2.98;54.18;103609.25;4917183;29;11555;-73
2021/11/16 07:24:56;;;;;;;;;10.50;10.50;;;;;2.80;54.46;103600.84;4915945;29;11668;-73
2021/11/16 07:27:54;;;;;;;;;14.00;13.75;;;;;2.88;53.92;103602.53;4933872;29;11514;-73
2021/11/16 07:30:26;;;;;;;;;23.00;20.00;;;;;3.40;53.65;103595.41;4935737;29;11560;-73
2021/11/16 07:33:23;;;;;;;;;17.50;15.75;;;;;3.35;53.52;103596.00;4910150;29;11536;-73
2021/11/16 07:36:19;;;;;;;;;13.00;8.75;;;;;3.32;52.98;103594.56;4922198;29;11550;-73
2021/11/16 07:39:15;;;;;;;;;25.00;21.00;;;;;3.75;52.50;103593.22;4933067;29;11544;-73
2021/11/16 07:42:10;;;;;;;;;11.50;10.75;;;;;3.82;52.07;103585.81;4935324;29;11667;-74
2021/11/16 07:45:13;;;;;;;;;16.50;15.50;;;;;3.55;52.28;103594.09;4934707;29;12268;-74
2021/11/16 07:48:12;;;;;;;;;9.50;9.00;;;;;3.82;51.55;103594.88;4921982;29;11564;-72
2021/11/16 07:50:54;;;;;;;;;8.00;8.00;;;;;3.99;51.06;103599.88;4917937;29;11520;-74
2021/11/16 07:53:51;;;;;;;;;6.25;6.25;;;;;4.62;49.77;103591.81;4934419;29;11553;-73
2021/11/16 07:56:47;;;;;;;;;8.50;8.50;;;;;4.92;48.78;103590.13;4935081;29;11477;-73
2021/11/16 07:59:43;;;;;;;;;8.00;8.00;;;;;5.02;48.54;103587.72;4932956;29;11518;-73
2021/11/16 08:02:40;;;;;;;;;9.25;9.25;;;;;5.19;48.20;103578.91;4934522;29;11543;-73
2021/11/16 08:11:47;;;;;;;;;1.75;1.75;;;;;5.74;45.61;103568.03;4933543;29;11593;-73
2021/11/16 08:14:48;;;;;;;;;1.00;1.00;;;;;5.92;44.55;103565.31;4933897;29;12247;-72
2021/11/16 08:17:46;;;;;;;;;2.75;2.75;;;;;6.37;44.04;103571.31;4936788;29;11540;-71
2021/11/16 08:20:42;;;;;;;;;2.75;2.75;;;;;6.32;43.21;103573.06;4932962;29;11606;-73
2021/11/16 08:23:10;;;;;;;;;3.00;3.00;;;;;6.13;43.23;103564.00;4934476;29;11519;-71
2021/11/16 08:26:06;;;;;;;;;3.00;3.00;;;;;6.31;42.96;103558.47;4936741;29;11471;-71
2021/11/16 08:29:03;;;;;;;;;1.50;1.50;;;;;6.03;43.51;103560.97;4937884;29;12307;-70
2021/11/16 08:32:22;;;;;;;;;1.00;1.00;;;;;6.19;42.59;103574.06;4937889;29;12247;-72
2021/11/16 08:35:11;;;;;;;;;3.00;2.00;;;;;6.37;42.60;103565.81;4937672;29;12192;-73
2021/11/16 08:38:11;;;;;;;;;2.25;2.25;;;;;6.44;42.64;103553.84;4937221;28;11507;-74
2021/11/16 08:41:07;;;;;;;;;3.25;3.25;;;;;6.60;42.55;103554.03;4936762;29;11471;-73
2021/11/16 08:44:14;;;;;;;;;2.00;2.00;;;;;6.80;42.00;103550.97;4937639;29;11448;-73
2021/11/16 08:47:12;;;;;;;;;3.00;3.00;;;;;6.64;42.32;103548.91;4937509;29;11595;-72
2021/11/16 08:50:18;;;;;;;;;3.00;3.00;;;;;7.10;41.32;103547.31;4937288;29;11467;-73
2021/11/16 08:53:28;;;;;;;;;3.00;3.00;;;;;6.74;41.19;103538.16;4937500;29;11495;-73
2021/11/16 08:56:27;;;;;;;;;2.25;2.25;;;;;6.97;40.93;103543.69;4936927;29;11486;-72
2021/11/16 08:59:23;;;;;;;;;3.00;3.00;;;;;6.81;41.24;103525.13;4936878;29;11472;-73
2021/11/16 09:02:21;;;;;;;;;1.25;1.25;;;;;7.29;41.39;103526.88;4938127;29;11440;-72
2021/11/16 09:05:18;;;;;;;;;3.00;2.00;;;;;7.47;40.25;103529.47;4936052;29;11434;-72
2021/11/16 09:08:25;;;;;;;;;1.75;1.75;;;;;6.99;41.01;103529.72;4930028;28;11442;-72
2021/11/16 09:11:23;;;;;;;;;3.00;3.00;;;;;7.60;40.17;103522.06;4937251;29;11536;-73
2021/11/16 09:13:50;;;;;;;;;4.00;3.00;;;;;7.41;41.12;103521.34;4936847;29;11441;-73
2021/11/16 09:16:46;;;;;;;;;2.00;2.00;;;;;7.58;41.01;103525.03;4938101;29;11462;-75
2021/11/16 09:19:42;;;;;;;;;6.50;6.50;;;;;7.28;41.21;103516.91;4930347;29;11530;-72
2021/11/16 09:22:38;;;;;;;;;3.00;3.00;;;;;7.24;41.08;103511.06;4936423;29;11452;-73
2021/11/16 09:25:36;;;;;;;;;4.50;4.50;;;;;7.37;42.03;103503.63;4937709;29;11431;-73
2021/11/16 09:28:28;;;;;;;;;0.25;0.25;;;;;7.48;41.87;103509.13;4936923;29;11442;-73
2021/11/16 09:31:45;;;;;;;;;8.50;8.50;;;;;7.75;44.73;103501.19;4935277;29;12240;-72
2021/11/16 09:34:40;;;;;;;;;4.00;4.00;;;;;7.56;40.93;103498.81;4937758;29;11467;-73
2021/11/16 09:37:41;;;;;;;;;10.25;10.25;;;;;7.12;41.33;103493.69;4936054;29;11440;-74
2021/11/16 09:40:37;;;;;;;;;3.50;3.50;;;;;7.68;41.30;103483.94;4936626;29;12404;-73
2021/11/16 09:43:33;;;;;;;;;6.00;3.50;;;;;8.04;39.95;103481.88;4935845;29;11516;-72
2021/11/16 09:46:29;;;;;;;;;2.25;2.25;;;;;7.63;40.38;103480.25;4936107;29;12229;-73
2021/11/16 09:49:51;;;;;;;;;5.25;5.25;;;;;8.05;40.64;103481.66;4935894;29;11520;-74
2021/11/16 09:52:31;;;;;;;;;6.25;6.25;;;;;7.78;40.72;103469.53;4935710;29;11459;-74
2021/11/16 09:55:34;;;;;;;;;8.25;7.25;;;;;8.15;40.69;103467.22;4917414;29;11627;-74
2021/11/16 09:58:33;;;;;;;;;7.25;7.25;;;;;7.99;39.50;103468.88;4906698;29;11452;-74
2021/11/16 10:01:39;;;;;;;;;4.00;4.00;;;;;8.66;39.83;103467.31;4932609;29;11454;-75
2021/11/16 10:04:45;;;;;;;;;4.00;4.00;;;;;8.42;39.06;103461.13;4922992;29;11249;-74
2021/11/16 10:07:16;;;;;;;;;3.25;3.25;;;;;8.29;39.33;103473.28;4937220;29;12219;-76
2021/11/16 10:10:12;;;;;;;;;8.00;7.75;;;;;8.28;38.91;103463.31;4935893;29;11439;-72
2021/11/16 10:13:13;;;;;;;;;8.00;7.50;;;;;8.41;39.28;103452.00;4935953;29;11440;-75
2021/11/16 10:16:09;;;;;;;;;28.00;28.00;;;;;8.39;39.05;103451.44;4936213;29;11526;-73
2021/11/16 10:19:05;;;;;;;;;11.75;9.50;;;;;8.88;38.16;103454.44;4903607;29;11603;-73
2021/11/16 10:22:05;;;;;;;;;7.50;7.50;;;;;8.87;38.62;103447.25;4916238;29;12465;-72
2021/11/16 10:24:40;;;;;;;;;17.25;11.25;;;;;9.29;37.36;103444.00;4901700;29;11552;-73
2021/11/16 10:27:33;;;;;;;;;8.75;8.50;;;;;9.28;36.63;103437.66;4917268;29;12335;-74
2021/11/16 10:30:30;;;;;;;;;1.50;1.50;;;;;8.79;38.12;103428.34;4915533;29;11139;-74
2021/11/16 10:33:49;;;;;;;;;11.00;10.50;;;;;7.83;39.68;103428.31;4916365;29;11134;-75
2021/11/16 10:37:01;;;;;;;;;7.75;7.75;;;;;8.51;41.02;103418.25;4904389;29;11547;-75
2021/11/16 10:40:11;;;;;;;;;7.50;7.50;;;;;8.72;38.24;103411.13;4914384;29;11557;-75
2021/11/16 10:43:08;;;;;;;;;10.25;10.25;;;;;9.07;38.88;103405.31;4914302;29;11651;-75
2021/11/16 10:46:06;;;;;;;;;8.50;7.25;;;;;9.14;37.39;103419.78;4916356;29;11568;-75
2021/11/16 10:49:09;;;;;;;;;22.50;20.25;;;;;9.64;42.77;103411.28;4903252;29;11333;-73
2021/11/16 10:52:06;;;;;;;;;18.00;14.00;;;;;9.53;37.66;103405.91;4916930;29;11629;-76
2021/11/16 10:55:05;;;;;;;;;13.25;12.25;;;;;9.31;37.46;103395.69;4916130;29;11607;-74
2021/11/16 10:58:05;;;;;;;;;37.75;36.25;;;;;9.03;37.43;103399.44;4898115;29;11590;-83
2021/11/16 11:01:08;;;;;;;;;23.75;23.00;;;;;9.00;38.04;103401.91;4901792;29;11679;-69
2021/11/16 11:04:18;;;;;;;;;14.50;13.25;;;;;9.15;37.56;103394.66;4915961;29;11614;-69
2021/11/16 11:07:14;;;;;;;;;13.75;10.50;;;;;9.12;37.93;103389.66;4916196;29;12447;-68
2021/11/16 11:10:09;;;;;;;;;11.75;10.75;;;;;9.15;37.37;103394.66;4915822;29;11540;-68
2021/11/16 11:12:38;;;;;;;;;58.25;38.50;;;;;9.03;38.65;103384.81;4917068;29;11579;-69
2021/11/16 11:15:33;;;;;;;;;38.75;36.00;;;;;9.19;37.60;103376.47;4899487;29;11655;-69
2021/11/16 11:18:06;;;;;;;;;7.00;7.00;;;;;8.80;37.57;103366.53;4927970;29;11560;-69
2021/11/16 11:20:38;;;;;;;;;11.00;10.50;;;;;8.53;38.03;103363.66;4918837;29;11486;-69
2021/11/16 11:23:29;;;;;;;;;10.00;9.50;;;;;8.95;38.36;103357.66;4936128;29;11450;-70
2021/11/16 11:26:40;;;;;;;;;12.25;12.25;;;;;8.81;38.22;103349.72;4935851;29;11249;-70
2021/11/16 11:29:31;;;;;;;;;5.50;5.50;;;;;8.90;37.99;103345.47;4935668;29;11500;-70
2021/11/16 11:32:07;;;;;;;;;5.75;4.50;;;;;8.50;37.77;103353.13;4935855;29;11157;-69
2021/11/16 11:34:49;;;;;;;;;3.00;3.00;;;;;8.44;38.18;103335.69;4935971;29;11176;-70
2021/11/16 11:37:28;;;;;;;;;10.75;10.25;;;;;8.73;39.48;103335.53;4932345;29;11270;-70
2021/11/16 11:40:11;;;;;;;;;6.00;6.00;;;;;8.60;38.82;103331.22;4935537;29;12266;-70
2021/11/16 11:42:48;;;;;;;;;14.50;14.50;;;;;8.67;38.04;103323.59;4936020;29;11283;-69
2021/11/16 11:45:28;;;;;;;;;8.00;8.00;;;;;8.73;38.17;103318.97;4935684;29;11527;-70
2021/11/16 11:47:58;;;;;;;;;12.50;11.00;;;;;8.85;38.19;103325.22;4935582;29;11269;-70
2021/11/16 11:50:29;;;;;;;;;10.00;10.00;;;;;8.77;37.69;103312.69;4937113;29;11603;-70
2021/11/16 11:52:59;;;;;;;;;28.25;25.75;;;;;8.85;39.15;103300.38;4939759;29;11483;-70
2021/11/16 11:55:30;;;;;;;;;10.25;10.25;;;;;8.72;37.44;103300.75;4922844;29;11619;-71
2021/11/16 11:58:01;;;;;;;;;2.75;2.75;;;;;8.34;37.81;103302.38;4939676;29;11280;-70
2021/11/16 12:00:32;;;;;;;;;11.75;11.75;;;;;8.51;38.44;103300.47;4922622;29;12271;-70
2021/11/16 12:03:03;;;;;;;;;10.25;10.25;;;;;8.49;38.15;103296.28;4939642;29;11480;-71
2021/11/16 12:05:37;;;;;;;;;5.50;5.50;;;;;8.35;38.79;103295.81;4907438;29;11483;-71
2021/11/16 12:08:09;;;;;;;;;16.25;15.50;;;;;8.24;40.09;103297.53;4922803;29;11576;-70
2021/11/16 12:10:39;;;;;;;;;26.00;25.75;;;;;8.11;39.45;103292.38;4922320;29;12310;-71
2021/11/16 12:13:11;;;;;;;;;20.00;20.00;;;;;8.24;39.29;103289.28;4939159;29;11475;-70
2021/11/16 12:15:54;;;;;;;;;26.00;24.00;;;;;8.17;39.90;103287.78;4939477;29;11501;-70
2021/11/16 12:18:43;;;;;;;;;16.25;16.25;;;;;8.20;40.03;103277.06;4939205;29;11491;-70
2021/11/16 12:21:26;;;;;;;;;14.25;14.25;;;;;8.30;39.85;103280.00;4939201;29;11490;-70
2021/11/16 12:24:01;;;;;;;;;30.50;30.50;;;;;8.23;41.18;103284.03;4939068;29;11469;-71
2021/11/16 12:26:32;;;;;;;;;23.00;20.25;;;;;7.92;40.09;103286.28;4939159;29;11568;-70
2021/11/16 12:29:20;;;;;;;;;21.25;21.25;;;;;7.68;40.04;103271.81;4938805;29;11507;-71
2021/11/16 12:31:50;;;;;;;;;30.25;28.75;;;;;7.53;40.93;103280.66;4938826;29;11482;-71
2021/11/16 12:34:40;;;;;;;;;9.50;9.50;;;;;7.64;39.46;103280.81;4938878;29;11669;-71
2021/11/16 12:37:09;;;;;;;;;9.25;9.25;;;;;7.71;39.71;103278.75;4938938;29;11480;-70
2021/11/16 12:39:58;;;;;;;;;26.25;20.25;;;;;7.57;40.82;103277.38;4938811;29;11437;-71
2021/11/16 12:42:26;;;;;;;;;17.75;16.50;;;;;7.53;40.80;103279.81;4938892;29;11492;-70
2021/11/16 12:45:00;;;;;;;;;8.75;8.75;;;;;7.50;40.92;103272.84;4938754;29;11538;-69
2021/11/16 12:47:32;;;;;;;;;15.50;13.75;;;;;7.18;41.06;103264.28;4939002;29;11473;-71
2021/11/16 12:50:11;;;;;;;;;15.50;14.25;;;;;7.40;41.38;103269.94;4938591;29;11490;-69
2021/11/16 12:52:57;;;;;;;;;20.25;19.75;;;;;7.34;40.58;103270.06;4921792;29;11518;-70
2021/11/16 12:55:30;;;;;;;;;19.00;19.00;;;;;7.50;41.29;103266.50;4938454;29;11682;-69
2021/11/16 12:58:22;;;;;;;;;18.50;18.50;;;;;7.46;40.75;103257.94;4938564;29;11531;-69
2021/11/16 13:00:52;;;;;;;;;11.75;11.75;;;;;7.46;41.08;103252.41;4927397;29;11666;-69
2021/11/16 13:03:54;;;;;;;;;20.00;20.00;;;;;7.30;41.22;103266.16;4937416;29;11464;-69
2021/11/16 13:06:23;;;;;;;;;11.00;10.50;;;;;7.28;41.18;103263.63;4924924;29;11546;-72
2021/11/16 13:08:53;;;;;;;;;14.50;14.50;;;;;7.45;41.67;103255.44;4938454;29;11480;-70
2021/11/16 13:11:46;;;;;;;;;43.00;38.50;;;;;7.50;41.37;103259.09;4921353;29;11533;-73
2021/11/16 13:14:36;;;;;;;;;13.75;11.00;;;;;7.50;41.14;103256.34;4938580;29;11583;-71
2021/11/16 13:17:41;;;;;;;;;17.50;12.25;;;;;7.31;41.57;103263.16;4937716;28;11468;-70
2021/11/16 13:20:12;;;;;;;;;49.75;37.00;;;;;7.47;40.54;103262.34;4937823;29;11521;-70
2021/11/16 13:22:53;;;;;;;;;22.75;18.75;;;;;7.25;41.71;103269.63;4938200;29;11559;-70
2021/11/16 13:25:45;;;;;;;;;15.75;14.50;;;;;7.11;41.11;103262.75;4937858;29;12360;-70
2021/11/16 13:31:11;;;;;;;;;16.00;15.25;;;;;7.11;41.94;103251.72;4901662;29;11561;-72
2021/11/16 13:34:20;;;;;;;;;18.25;18.25;;;;;6.93;41.76;103248.09;4930505;29;11543;-73
2021/11/16 13:37:20;;;;;;;;;24.50;22.75;;;;;6.81;41.85;103254.69;4936765;29;11625;-74
2021/11/16 13:40:22;;;;;;;;;40.00;38.25;;;;;6.53;42.36;103239.81;4935844;29;11525;-73